sensor_id;sensor_type;location;lat;lon;timestamp;temperature;humidity
6988;DHT22;3534;49.960;8.018;2023-06-19T00:01:34;25.00;99.90
6988;DHT22;3534;49.960;8.018;2023-06-19T00:04:00;25.00;99.90
6988;DHT22;3534;49.960;8.018;2023-06-19T00:06:27;25.00;99.90
6988;DHT22;3534;49.960;8.018;2023-06-19T00:08:53;25.00;99.90
6988;DHT22;3534;49.960;8.018;2023-06-19T00:11:20;25.00;99.90
6988;DHT22;3534;49.960;8.018;2023-06-19T00:13:49;24.90;99.90
6988;DHT22;3534;49.960;8.018;2023-06-19T00:16:15;24.90;99.90
6988;DHT22;3534;49.960;8.018;2023-06-19T00:18:43;24.90;99.90
6988;DHT22;3534;49.960;8.018;2023-06-19T00:21:10;24.90;99.90
6988;DHT22;3534;49.960;8.018;2023-06-19T00:23:36;24.90;99.90
6988;DHT22;3534;49.960;8.018;2023-06-19T00:26:03;24.90;99.90
6988;DHT22;3534;49.960;8.018;2023-06-19T00:28:31;24.80;99.90
6988;DHT22;3534;49.960;8.018;2023-06-19T00:30:59;24.70;99.90
6988;DHT22;3534;49.960;8.018;2023-06-19T00:33:25;24.60;99.90
6988;DHT22;3534;49.960;8.018;2023-06-19T00:35:52;24.50;99.90
6988;DHT22;3534;49.960;8.018;2023-06-19T00:38:19;24.50;99.90
6988;DHT22;3534;49.960;8.018;2023-06-19T00:40:46;24.50;99.90
6988;DHT22;3534;49.960;8.018;2023-06-19T00:43:12;24.50;99.90
6988;DHT22;3534;49.960;8.018;2023-06-19T00:45:39;24.50;99.90
6988;DHT22;3534;49.960;8.018;2023-06-19T00:48:07;24.50;99.90
6988;DHT22;3534;49.960;8.018;2023-06-19T00:50:34;24.50;99.90
6988;DHT22;3534;49.960;8.018;2023-06-19T00:53:03;24.40;99.90
6988;DHT22;3534;49.960;8.018;2023-06-19T00:55:30;24.30;99.90
6988;DHT22;3534;49.960;8.018;2023-06-19T00:57:59;24.30;99.90
6988;DHT22;3534;49.960;8.018;2023-06-19T01:00:26;24.30;99.90
6988;DHT22;3534;49.960;8.018;2023-06-19T01:02:53;24.30;99.90
6988;DHT22;3534;49.960;8.018;2023-06-19T01:05:21;24.40;99.90
6988;DHT22;3534;49.960;8.018;2023-06-19T01:08:00;24.40;99.90
6988;DHT22;3534;49.960;8.018;2023-06-19T01:10:32;24.40;99.90
6988;DHT22;3534;49.960;8.018;2023-06-19T01:13:07;24.40;99.90
6988;DHT22;3534;49.960;8.018;2023-06-19T01:15:35;24.30;99.90
6988;DHT22;3534;49.960;8.018;2023-06-19T01:18:02;24.40;99.90
6988;DHT22;3534;49.960;8.018;2023-06-19T01:20:31;24.30;99.90
6988;DHT22;3534;49.960;8.018;2023-06-19T01:23:07;24.30;99.90
6988;DHT22;3534;49.960;8.018;2023-06-19T01:25:33;24.30;99.90
6988;DHT22;3534;49.960;8.018;2023-06-19T01:28:00;24.30;99.90
6988;DHT22;3534;49.960;8.018;2023-06-19T01:30:27;24.20;99.90
6988;DHT22;3534;49.960;8.018;2023-06-19T01:32:58;24.30;99.90
6988;DHT22;3534;49.960;8.018;2023-06-19T01:35:28;24.30;99.90
6988;DHT22;3534;49.960;8.018;2023-06-19T01:37:56;24.30;99.90
6988;DHT22;3534;49.960;8.018;2023-06-19T01:40:26;24.20;99.90
6988;DHT22;3534;49.960;8.018;2023-06-19T01:42:57;24.20;99.90
6988;DHT22;3534;49.960;8.018;2023-06-19T01:45:24;24.20;99.90
6988;DHT22;3534;49.960;8.018;2023-06-19T01:47:52;24.20;99.90
6988;DHT22;3534;49.960;8.018;2023-06-19T01:50:21;24.20;99.90
6988;DHT22;3534;49.960;8.018;2023-06-19T01:52:48;24.20;99.90
6988;DHT22;3534;49.960;8.018;2023-06-19T01:55:15;24.20;99.90
6988;DHT22;3534;49.960;8.018;2023-06-19T01:57:44;24.20;99.90
6988;DHT22;3534;49.960;8.018;2023-06-19T02:00:11;24.20;99.90
6988;DHT22;3534;49.960;8.018;2023-06-19T02:02:38;24.20;99.90
6988;DHT22;3534;49.960;8.018;2023-06-19T02:05:06;24.20;99.90
6988;DHT22;3534;49.960;8.018;2023-06-19T02:07:32;24.10;99.90
6988;DHT22;3534;49.960;8.018;2023-06-19T02:09:59;24.10;99.90
6988;DHT22;3534;49.960;8.018;2023-06-19T02:12:26;24.10;99.90
6988;DHT22;3534;49.960;8.018;2023-06-19T02:14:54;24.10;99.90
6988;DHT22;3534;49.960;8.018;2023-06-19T02:17:21;24.00;99.90
6988;DHT22;3534;49.960;8.018;2023-06-19T02:19:47;24.00;99.90
6988;DHT22;3534;49.960;8.018;2023-06-19T02:22:14;23.90;99.90
6988;DHT22;3534;49.960;8.018;2023-06-19T02:24:41;23.90;99.90
6988;DHT22;3534;49.960;8.018;2023-06-19T02:27:09;23.80;99.90
6988;DHT22;3534;49.960;8.018;2023-06-19T02:29:36;23.80;99.90
6988;DHT22;3534;49.960;8.018;2023-06-19T02:32:05;23.70;99.90
6988;DHT22;3534;49.960;8.018;2023-06-19T02:34:32;23.60;99.90
6988;DHT22;3534;49.960;8.018;2023-06-19T02:36:59;23.60;99.90
6988;DHT22;3534;49.960;8.018;2023-06-19T02:39:26;23.60;99.90
6988;DHT22;3534;49.960;8.018;2023-06-19T02:41:53;23.50;99.90
6988;DHT22;3534;49.960;8.018;2023-06-19T02:44:19;23.50;99.90
6988;DHT22;3534;49.960;8.018;2023-06-19T02:46:46;23.50;99.90
6988;DHT22;3534;49.960;8.018;2023-06-19T02:49:14;23.40;99.90
6988;DHT22;3534;49.960;8.018;2023-06-19T02:51:41;23.40;99.90
6988;DHT22;3534;49.960;8.018;2023-06-19T02:54:07;23.40;99.90
6988;DHT22;3534;49.960;8.018;2023-06-19T02:56:34;23.30;99.90
6988;DHT22;3534;49.960;8.018;2023-06-19T02:59:01;23.30;99.90
6988;DHT22;3534;49.960;8.018;2023-06-19T03:01:27;23.30;99.90
6988;DHT22;3534;49.960;8.018;2023-06-19T03:03:54;23.30;99.90
6988;DHT22;3534;49.960;8.018;2023-06-19T03:06:22;23.30;99.90
6988;DHT22;3534;49.960;8.018;2023-06-19T03:08:49;23.30;99.90
6988;DHT22;3534;49.960;8.018;2023-06-19T03:11:16;23.20;99.90
6988;DHT22;3534;49.960;8.018;2023-06-19T03:13:47;23.20;99.90
6988;DHT22;3534;49.960;8.018;2023-06-19T03:16:14;23.20;99.90
6988;DHT22;3534;49.960;8.018;2023-06-19T03:18:41;23.20;99.90
6988;DHT22;3534;49.960;8.018;2023-06-19T03:21:07;23.10;99.90
6988;DHT22;3534;49.960;8.018;2023-06-19T03:23:35;23.10;99.90
6988;DHT22;3534;49.960;8.018;2023-06-19T03:26:02;23.10;99.90
6988;DHT22;3534;49.960;8.018;2023-06-19T03:28:29;23.10;99.90
6988;DHT22;3534;49.960;8.018;2023-06-19T03:30:56;23.10;99.90
6988;DHT22;3534;49.960;8.018;2023-06-19T03:33:23;23.00;99.90
6988;DHT22;3534;49.960;8.018;2023-06-19T03:35:50;23.00;99.90
6988;DHT22;3534;49.960;8.018;2023-06-19T03:38:16;23.00;99.90
6988;DHT22;3534;49.960;8.018;2023-06-19T03:40:44;23.00;99.90
6988;DHT22;3534;49.960;8.018;2023-06-19T03:43:11;23.00;99.90
6988;DHT22;3534;49.960;8.018;2023-06-19T03:45:38;22.90;99.90
6988;DHT22;3534;49.960;8.018;2023-06-19T03:48:06;22.90;99.90
6988;DHT22;3534;49.960;8.018;2023-06-19T03:50:33;22.90;99.90
6988;DHT22;3534;49.960;8.018;2023-06-19T03:52:59;22.80;99.90
6988;DHT22;3534;49.960;8.018;2023-06-19T03:55:26;22.80;99.90
6988;DHT22;3534;49.960;8.018;2023-06-19T03:57:54;22.80;99.90
6988;DHT22;3534;49.960;8.018;2023-06-19T04:00:21;22.80;99.90
6988;DHT22;3534;49.960;8.018;2023-06-19T04:02:47;22.80;99.90
6988;DHT22;3534;49.960;8.018;2023-06-19T04:05:14;22.80;99.90
6988;DHT22;3534;49.960;8.018;2023-06-19T04:07:41;22.80;99.90
6988;DHT22;3534;49.960;8.018;2023-06-19T04:10:08;22.80;99.90
6988;DHT22;3534;49.960;8.018;2023-06-19T04:12:36;22.80;99.90
6988;DHT22;3534;49.960;8.018;2023-06-19T04:15:05;22.80;99.90
6988;DHT22;3534;49.960;8.018;2023-06-19T04:17:32;22.80;99.90
6988;DHT22;3534;49.960;8.018;2023-06-19T04:19:59;22.80;99.90
6988;DHT22;3534;49.960;8.018;2023-06-19T04:22:26;22.80;99.90
6988;DHT22;3534;49.960;8.018;2023-06-19T04:24:52;22.80;99.90
6988;DHT22;3534;49.960;8.018;2023-06-19T04:27:19;22.70;99.90
6988;DHT22;3534;49.960;8.018;2023-06-19T04:29:46;22.70;99.90
6988;DHT22;3534;49.960;8.018;2023-06-19T04:32:14;22.80;99.90
6988;DHT22;3534;49.960;8.018;2023-06-19T04:34:41;22.80;99.90
6988;DHT22;3534;49.960;8.018;2023-06-19T04:37:11;22.80;99.90
6988;DHT22;3534;49.960;8.018;2023-06-19T04:39:38;22.70;99.90
6988;DHT22;3534;49.960;8.018;2023-06-19T04:42:05;22.70;99.90
6988;DHT22;3534;49.960;8.018;2023-06-19T04:44:32;22.70;99.90
6988;DHT22;3534;49.960;8.018;2023-06-19T04:46:59;22.70;99.90
6988;DHT22;3534;49.960;8.018;2023-06-19T04:49:28;22.80;99.90
6988;DHT22;3534;49.960;8.018;2023-06-19T04:51:55;22.80;99.90
6988;DHT22;3534;49.960;8.018;2023-06-19T04:54:22;22.80;99.90
6988;DHT22;3534;49.960;8.018;2023-06-19T04:56:49;22.80;99.90
6988;DHT22;3534;49.960;8.018;2023-06-19T04:59:15;22.80;99.90
6988;DHT22;3534;49.960;8.018;2023-06-19T05:01:43;22.90;99.90
6988;DHT22;3534;49.960;8.018;2023-06-19T05:04:10;22.90;99.90
6988;DHT22;3534;49.960;8.018;2023-06-19T05:06:38;22.90;99.90
6988;DHT22;3534;49.960;8.018;2023-06-19T05:09:05;22.90;99.90
6988;DHT22;3534;49.960;8.018;2023-06-19T05:11:32;22.90;99.90
6988;DHT22;3534;49.960;8.018;2023-06-19T05:13:58;22.90;99.90
6988;DHT22;3534;49.960;8.018;2023-06-19T05:16:25;22.90;99.90
6988;DHT22;3534;49.960;8.018;2023-06-19T05:18:52;23.00;99.90
6988;DHT22;3534;49.960;8.018;2023-06-19T05:21:18;23.00;99.90
6988;DHT22;3534;49.960;8.018;2023-06-19T05:23:46;23.00;99.90
6988;DHT22;3534;49.960;8.018;2023-06-19T05:26:15;23.00;99.90
6988;DHT22;3534;49.960;8.018;2023-06-19T05:28:42;23.00;99.90
6988;DHT22;3534;49.960;8.018;2023-06-19T05:31:09;23.00;99.90
6988;DHT22;3534;49.960;8.018;2023-06-19T05:33:36;23.00;99.90
6988;DHT22;3534;49.960;8.018;2023-06-19T05:36:03;23.00;99.90
6988;DHT22;3534;49.960;8.018;2023-06-19T05:38:29;23.10;99.90
6988;DHT22;3534;49.960;8.018;2023-06-19T05:40:58;23.10;99.90
6988;DHT22;3534;49.960;8.018;2023-06-19T05:43:25;23.10;99.90
6988;DHT22;3534;49.960;8.018;2023-06-19T05:45:52;23.10;99.90
6988;DHT22;3534;49.960;8.018;2023-06-19T05:48:19;23.10;99.90
6988;DHT22;3534;49.960;8.018;2023-06-19T05:50:46;23.10;99.90
6988;DHT22;3534;49.960;8.018;2023-06-19T05:53:13;23.10;99.90
6988;DHT22;3534;49.960;8.018;2023-06-19T05:55:40;23.10;99.90
6988;DHT22;3534;49.960;8.018;2023-06-19T05:58:08;23.10;99.90
6988;DHT22;3534;49.960;8.018;2023-06-19T06:00:36;23.10;99.90
6988;DHT22;3534;49.960;8.018;2023-06-19T06:03:03;23.10;99.90
6988;DHT22;3534;49.960;8.018;2023-06-19T06:05:30;23.10;99.90
6988;DHT22;3534;49.960;8.018;2023-06-19T06:07:57;23.10;99.90
6988;DHT22;3534;49.960;8.018;2023-06-19T06:10:25;23.10;99.90
6988;DHT22;3534;49.960;8.018;2023-06-19T06:12:51;23.20;99.90
6988;DHT22;3534;49.960;8.018;2023-06-19T06:15:19;23.30;99.90
6988;DHT22;3534;49.960;8.018;2023-06-19T06:17:46;23.20;99.90
6988;DHT22;3534;49.960;8.018;2023-06-19T06:20:13;23.20;99.90
6988;DHT22;3534;49.960;8.018;2023-06-19T06:22:39;23.30;99.90
6988;DHT22;3534;49.960;8.018;2023-06-19T06:25:07;23.30;99.90
6988;DHT22;3534;49.960;8.018;2023-06-19T06:27:35;23.30;99.90
6988;DHT22;3534;49.960;8.018;2023-06-19T06:30:02;23.40;99.90
6988;DHT22;3534;49.960;8.018;2023-06-19T06:32:30;23.40;99.90
6988;DHT22;3534;49.960;8.018;2023-06-19T06:34:57;23.40;99.90
6988;DHT22;3534;49.960;8.018;2023-06-19T06:37:24;23.50;99.90
6988;DHT22;3534;49.960;8.018;2023-06-19T06:39:51;23.50;99.90
6988;DHT22;3534;49.960;8.018;2023-06-19T06:42:18;23.50;99.90
6988;DHT22;3534;49.960;8.018;2023-06-19T06:44:45;23.50;99.90
6988;DHT22;3534;49.960;8.018;2023-06-19T06:47:12;23.60;99.90
6988;DHT22;3534;49.960;8.018;2023-06-19T06:49:40;23.70;99.90
6988;DHT22;3534;49.960;8.018;2023-06-19T06:52:07;23.80;99.90
6988;DHT22;3534;49.960;8.018;2023-06-19T06:54:33;23.80;99.90
6988;DHT22;3534;49.960;8.018;2023-06-19T06:57:00;23.80;99.90
6988;DHT22;3534;49.960;8.018;2023-06-19T06:59:27;23.80;99.90
6988;DHT22;3534;49.960;8.018;2023-06-19T07:01:54;23.80;99.90
6988;DHT22;3534;49.960;8.018;2023-06-19T07:04:21;23.80;99.90
6988;DHT22;3534;49.960;8.018;2023-06-19T07:06:49;23.80;99.90
6988;DHT22;3534;49.960;8.018;2023-06-19T07:09:17;23.90;99.90
6988;DHT22;3534;49.960;8.018;2023-06-19T07:11:44;23.90;99.90
6988;DHT22;3534;49.960;8.018;2023-06-19T07:14:10;23.90;99.90
6988;DHT22;3534;49.960;8.018;2023-06-19T07:16:37;24.00;99.90
6988;DHT22;3534;49.960;8.018;2023-06-19T07:19:04;24.00;99.90
6988;DHT22;3534;49.960;8.018;2023-06-19T07:21:31;24.00;99.90
6988;DHT22;3534;49.960;8.018;2023-06-19T07:23:59;24.00;99.90
6988;DHT22;3534;49.960;8.018;2023-06-19T07:26:26;24.10;99.90
6988;DHT22;3534;49.960;8.018;2023-06-19T07:28:52;24.20;99.90
6988;DHT22;3534;49.960;8.018;2023-06-19T07:31:19;24.20;99.90
6988;DHT22;3534;49.960;8.018;2023-06-19T07:33:46;24.20;99.90
6988;DHT22;3534;49.960;8.018;2023-06-19T07:36:12;24.20;99.90
6988;DHT22;3534;49.960;8.018;2023-06-19T07:38:39;24.20;99.90
6988;DHT22;3534;49.960;8.018;2023-06-19T07:41:08;24.20;99.90
6988;DHT22;3534;49.960;8.018;2023-06-19T07:43:35;24.30;99.90
6988;DHT22;3534;49.960;8.018;2023-06-19T07:46:03;24.30;99.90
6988;DHT22;3534;49.960;8.018;2023-06-19T07:48:30;24.30;99.90
6988;DHT22;3534;49.960;8.018;2023-06-19T07:50:57;24.30;99.90
6988;DHT22;3534;49.960;8.018;2023-06-19T07:53:23;24.30;99.90
6988;DHT22;3534;49.960;8.018;2023-06-19T07:55:50;24.30;99.90
6988;DHT22;3534;49.960;8.018;2023-06-19T07:58:18;24.40;99.90
6988;DHT22;3534;49.960;8.018;2023-06-19T08:00:45;24.50;99.90
6988;DHT22;3534;49.960;8.018;2023-06-19T08:03:12;24.60;99.90
6988;DHT22;3534;49.960;8.018;2023-06-19T08:05:38;24.70;99.90
6988;DHT22;3534;49.960;8.018;2023-06-19T08:08:05;24.70;99.90
6988;DHT22;3534;49.960;8.018;2023-06-19T08:10:32;24.70;99.90
6988;DHT22;3534;49.960;8.018;2023-06-19T08:12:59;24.80;99.90
6988;DHT22;3534;49.960;8.018;2023-06-19T08:15:27;24.80;99.90
6988;DHT22;3534;49.960;8.018;2023-06-19T08:17:53;24.90;99.90
6988;DHT22;3534;49.960;8.018;2023-06-19T08:20:21;24.90;99.90
6988;DHT22;3534;49.960;8.018;2023-06-19T08:22:48;25.00;99.90
6988;DHT22;3534;49.960;8.018;2023-06-19T08:25:15;25.10;99.90
6988;DHT22;3534;49.960;8.018;2023-06-19T08:27:42;25.00;99.90
6988;DHT22;3534;49.960;8.018;2023-06-19T08:30:11;25.00;99.90
6988;DHT22;3534;49.960;8.018;2023-06-19T08:32:39;25.00;99.90
6988;DHT22;3534;49.960;8.018;2023-06-19T08:35:07;25.00;99.90
6988;DHT22;3534;49.960;8.018;2023-06-19T08:37:34;25.10;99.90
6988;DHT22;3534;49.960;8.018;2023-06-19T08:40:01;25.10;99.90
6988;DHT22;3534;49.960;8.018;2023-06-19T08:42:28;25.10;99.90
6988;DHT22;3534;49.960;8.018;2023-06-19T08:44:55;25.10;99.90
6988;DHT22;3534;49.960;8.018;2023-06-19T08:47:21;25.20;99.90
6988;DHT22;3534;49.960;8.018;2023-06-19T08:49:49;25.20;99.90
6988;DHT22;3534;49.960;8.018;2023-06-19T08:52:16;25.20;99.90
6988;DHT22;3534;49.960;8.018;2023-06-19T08:54:43;25.20;99.90
6988;DHT22;3534;49.960;8.018;2023-06-19T08:57:10;25.20;99.90
6988;DHT22;3534;49.960;8.018;2023-06-19T08:59:37;25.20;99.90
6988;DHT22;3534;49.960;8.018;2023-06-19T09:02:04;25.20;99.90
6988;DHT22;3534;49.960;8.018;2023-06-19T09:04:31;25.20;99.90
6988;DHT22;3534;49.960;8.018;2023-06-19T09:07:02;25.30;99.90
6988;DHT22;3534;49.960;8.018;2023-06-19T09:09:29;25.30;99.90
6988;DHT22;3534;49.960;8.018;2023-06-19T09:12:00;25.30;99.90
6988;DHT22;3534;49.960;8.018;2023-06-19T09:14:33;25.40;99.90
6988;DHT22;3534;49.960;8.018;2023-06-19T09:17:01;25.50;99.90
6988;DHT22;3534;49.960;8.018;2023-06-19T09:19:28;25.50;99.90
6988;DHT22;3534;49.960;8.018;2023-06-19T09:22:01;25.60;99.90
6988;DHT22;3534;49.960;8.018;2023-06-19T09:24:35;25.70;99.90
6988;DHT22;3534;49.960;8.018;2023-06-19T09:27:06;25.80;99.90
6988;DHT22;3534;49.960;8.018;2023-06-19T09:29:36;25.80;99.90
6988;DHT22;3534;49.960;8.018;2023-06-19T09:32:14;25.80;99.90
6988;DHT22;3534;49.960;8.018;2023-06-19T09:34:41;25.90;99.90
6988;DHT22;3534;49.960;8.018;2023-06-19T09:37:09;26.00;99.90
6988;DHT22;3534;49.960;8.018;2023-06-19T09:39:37;26.00;99.90
6988;DHT22;3534;49.960;8.018;2023-06-19T09:42:06;26.10;99.90
6988;DHT22;3534;49.960;8.018;2023-06-19T09:44:40;26.10;99.90
6988;DHT22;3534;49.960;8.018;2023-06-19T09:47:13;26.20;99.90
6988;DHT22;3534;49.960;8.018;2023-06-19T09:49:47;26.20;99.90
6988;DHT22;3534;49.960;8.018;2023-06-19T09:52:16;26.30;99.90
6988;DHT22;3534;49.960;8.018;2023-06-19T09:54:45;26.30;99.90
6988;DHT22;3534;49.960;8.018;2023-06-19T09:57:12;26.40;99.90
6988;DHT22;3534;49.960;8.018;2023-06-19T09:59:40;26.40;99.90
6988;DHT22;3534;49.960;8.018;2023-06-19T10:02:07;26.50;99.90
6988;DHT22;3534;49.960;8.018;2023-06-19T10:04:42;26.50;99.90
6988;DHT22;3534;49.960;8.018;2023-06-19T10:07:17;26.60;99.90
6988;DHT22;3534;49.960;8.018;2023-06-19T10:09:58;26.60;99.90
6988;DHT22;3534;49.960;8.018;2023-06-19T10:12:37;26.70;99.90
6988;DHT22;3534;49.960;8.018;2023-06-19T10:15:09;26.70;99.90
6988;DHT22;3534;49.960;8.018;2023-06-19T10:17:36;26.70;99.90
6988;DHT22;3534;49.960;8.018;2023-06-19T10:20:04;26.80;99.90
6988;DHT22;3534;49.960;8.018;2023-06-19T10:22:38;26.90;99.90
6988;DHT22;3534;49.960;8.018;2023-06-19T10:25:05;27.00;99.90
6988;DHT22;3534;49.960;8.018;2023-06-19T10:27:34;27.10;99.90
6988;DHT22;3534;49.960;8.018;2023-06-19T10:30:04;27.10;99.90
6988;DHT22;3534;49.960;8.018;2023-06-19T10:32:30;27.10;99.90
6988;DHT22;3534;49.960;8.018;2023-06-19T10:34:57;27.20;99.90
6988;DHT22;3534;49.960;8.018;2023-06-19T10:37:32;27.20;99.90
6988;DHT22;3534;49.960;8.018;2023-06-19T10:40:00;27.20;99.90
6988;DHT22;3534;49.960;8.018;2023-06-19T10:42:27;27.20;99.90
6988;DHT22;3534;49.960;8.018;2023-06-19T10:44:59;27.20;99.90
6988;DHT22;3534;49.960;8.018;2023-06-19T10:47:26;27.30;99.90
6988;DHT22;3534;49.960;8.018;2023-06-19T10:49:54;27.20;99.90
6988;DHT22;3534;49.960;8.018;2023-06-19T10:52:21;27.20;99.90
6988;DHT22;3534;49.960;8.018;2023-06-19T10:54:53;27.20;99.90
6988;DHT22;3534;49.960;8.018;2023-06-19T10:57:28;27.20;99.90
6988;DHT22;3534;49.960;8.018;2023-06-19T10:59:55;27.20;99.90
6988;DHT22;3534;49.960;8.018;2023-06-19T11:02:22;27.20;99.90
6988;DHT22;3534;49.960;8.018;2023-06-19T11:04:51;27.20;99.90
6988;DHT22;3534;49.960;8.018;2023-06-19T11:07:18;27.20;99.90
6988;DHT22;3534;49.960;8.018;2023-06-19T11:09:44;27.20;99.90
6988;DHT22;3534;49.960;8.018;2023-06-19T11:12:11;27.20;99.90
6988;DHT22;3534;49.960;8.018;2023-06-19T11:14:40;27.20;99.90
6988;DHT22;3534;49.960;8.018;2023-06-19T11:17:08;27.20;99.90
6988;DHT22;3534;49.960;8.018;2023-06-19T11:19:35;27.20;99.90
6988;DHT22;3534;49.960;8.018;2023-06-19T11:22:04;27.20;99.90
6988;DHT22;3534;49.960;8.018;2023-06-19T11:24:32;27.30;99.90
6988;DHT22;3534;49.960;8.018;2023-06-19T11:26:59;27.30;99.90
6988;DHT22;3534;49.960;8.018;2023-06-19T11:29:29;27.30;99.90
6988;DHT22;3534;49.960;8.018;2023-06-19T11:32:06;27.40;99.90
6988;DHT22;3534;49.960;8.018;2023-06-19T11:34:34;27.50;99.90
6988;DHT22;3534;49.960;8.018;2023-06-19T11:37:02;27.50;99.90
6988;DHT22;3534;49.960;8.018;2023-06-19T11:39:31;27.50;99.90
6988;DHT22;3534;49.960;8.018;2023-06-19T11:41:58;27.60;99.90
6988;DHT22;3534;49.960;8.018;2023-06-19T11:44:25;27.60;99.90
6988;DHT22;3534;49.960;8.018;2023-06-19T11:46:56;27.60;99.90
6988;DHT22;3534;49.960;8.018;2023-06-19T11:49:25;27.70;99.90
6988;DHT22;3534;49.960;8.018;2023-06-19T11:51:53;27.80;99.40
6988;DHT22;3534;49.960;8.018;2023-06-19T11:54:20;27.80;99.90
6988;DHT22;3534;49.960;8.018;2023-06-19T11:56:47;27.90;99.40
6988;DHT22;3534;49.960;8.018;2023-06-19T11:59:14;28.00;99.50
6988;DHT22;3534;49.960;8.018;2023-06-19T12:01:41;28.10;99.70
6988;DHT22;3534;49.960;8.018;2023-06-19T12:04:08;28.20;99.90
6988;DHT22;3534;49.960;8.018;2023-06-19T12:06:36;28.30;99.40
6988;DHT22;3534;49.960;8.018;2023-06-19T12:09:03;28.40;99.30
6988;DHT22;3534;49.960;8.018;2023-06-19T12:11:30;28.50;99.30
6988;DHT22;3534;49.960;8.018;2023-06-19T12:13:57;28.50;98.30
6988;DHT22;3534;49.960;8.018;2023-06-19T12:16:24;28.50;99.00
6988;DHT22;3534;49.960;8.018;2023-06-19T12:18:51;28.50;99.00
6988;DHT22;3534;49.960;8.018;2023-06-19T12:21:18;28.60;99.90
6988;DHT22;3534;49.960;8.018;2023-06-19T12:23:46;28.60;99.90
6988;DHT22;3534;49.960;8.018;2023-06-19T12:26:12;28.70;99.90
6988;DHT22;3534;49.960;8.018;2023-06-19T12:28:39;28.70;99.90
6988;DHT22;3534;49.960;8.018;2023-06-19T12:31:06;28.80;99.50
6988;DHT22;3534;49.960;8.018;2023-06-19T12:33:32;28.90;98.60
6988;DHT22;3534;49.960;8.018;2023-06-19T12:35:59;29.00;97.80
6988;DHT22;3534;49.960;8.018;2023-06-19T12:38:26;29.10;97.50
6988;DHT22;3534;49.960;8.018;2023-06-19T12:40:54;29.20;98.00
6988;DHT22;3534;49.960;8.018;2023-06-19T12:43:21;29.30;97.80
6988;DHT22;3534;49.960;8.018;2023-06-19T12:45:48;29.40;97.50
6988;DHT22;3534;49.960;8.018;2023-06-19T12:48:14;29.50;97.80
6988;DHT22;3534;49.960;8.018;2023-06-19T12:50:42;29.50;97.40
6988;DHT22;3534;49.960;8.018;2023-06-19T12:53:09;29.60;97.40
6988;DHT22;3534;49.960;8.018;2023-06-19T12:55:37;29.70;97.00
6988;DHT22;3534;49.960;8.018;2023-06-19T12:58:05;29.90;96.90
6988;DHT22;3534;49.960;8.018;2023-06-19T13:00:31;29.90;96.70
6988;DHT22;3534;49.960;8.018;2023-06-19T13:02:58;30.00;96.30
6988;DHT22;3534;49.960;8.018;2023-06-19T13:05:25;30.00;95.50
6988;DHT22;3534;49.960;8.018;2023-06-19T13:07:51;30.00;94.80
6988;DHT22;3534;49.960;8.018;2023-06-19T13:10:18;30.00;94.70
6988;DHT22;3534;49.960;8.018;2023-06-19T13:12:45;30.00;94.80
6988;DHT22;3534;49.960;8.018;2023-06-19T13:15:13;30.00;94.80
6988;DHT22;3534;49.960;8.018;2023-06-19T13:17:40;30.10;94.20
6988;DHT22;3534;49.960;8.018;2023-06-19T13:20:08;30.20;94.30
6988;DHT22;3534;49.960;8.018;2023-06-19T13:22:34;30.40;94.00
6988;DHT22;3534;49.960;8.018;2023-06-19T13:25:01;30.60;93.70
6988;DHT22;3534;49.960;8.018;2023-06-19T13:27:28;30.80;93.60
6988;DHT22;3534;49.960;8.018;2023-06-19T13:29:55;30.90;93.00
6988;DHT22;3534;49.960;8.018;2023-06-19T13:32:23;31.00;92.60
6988;DHT22;3534;49.960;8.018;2023-06-19T13:34:50;31.20;93.10
6988;DHT22;3534;49.960;8.018;2023-06-19T13:37:18;31.40;92.90
6988;DHT22;3534;49.960;8.018;2023-06-19T13:39:45;31.80;92.10
6988;DHT22;3534;49.960;8.018;2023-06-19T13:42:12;32.30;92.30
6988;DHT22;3534;49.960;8.018;2023-06-19T13:44:38;32.80;90.90
6988;DHT22;3534;49.960;8.018;2023-06-19T13:47:06;33.20;89.20
6988;DHT22;3534;49.960;8.018;2023-06-19T13:49:34;33.40;88.30
6988;DHT22;3534;49.960;8.018;2023-06-19T13:52:01;33.70;87.70
6988;DHT22;3534;49.960;8.018;2023-06-19T13:54:27;34.00;85.70
6988;DHT22;3534;49.960;8.018;2023-06-19T13:56:54;34.50;84.50
6988;DHT22;3534;49.960;8.018;2023-06-19T13:59:21;34.80;83.10
6988;DHT22;3534;49.960;8.018;2023-06-19T14:01:47;35.20;80.60
6988;DHT22;3534;49.960;8.018;2023-06-19T14:04:14;35.20;79.50
6988;DHT22;3534;49.960;8.018;2023-06-19T14:06:42;35.00;79.30
6988;DHT22;3534;49.960;8.018;2023-06-19T14:09:09;34.80;79.10
6988;DHT22;3534;49.960;8.018;2023-06-19T14:11:36;34.40;78.80
6988;DHT22;3534;49.960;8.018;2023-06-19T14:14:02;34.00;79.70
6988;DHT22;3534;49.960;8.018;2023-06-19T14:16:29;33.60;78.90
6988;DHT22;3534;49.960;8.018;2023-06-19T14:18:56;33.30;79.10
6988;DHT22;3534;49.960;8.018;2023-06-19T14:21:22;33.00;79.40
6988;DHT22;3534;49.960;8.018;2023-06-19T14:23:51;32.80;80.30
6988;DHT22;3534;49.960;8.018;2023-06-19T14:26:17;32.60;80.10
6988;DHT22;3534;49.960;8.018;2023-06-19T14:28:44;32.40;80.10
6988;DHT22;3534;49.960;8.018;2023-06-19T14:31:11;32.10;80.40
6988;DHT22;3534;49.960;8.018;2023-06-19T14:33:37;32.00;81.00
6988;DHT22;3534;49.960;8.018;2023-06-19T14:36:05;31.90;80.40
6988;DHT22;3534;49.960;8.018;2023-06-19T14:38:31;31.90;80.50
6988;DHT22;3534;49.960;8.018;2023-06-19T14:41:01;31.80;79.80
6988;DHT22;3534;49.960;8.018;2023-06-19T14:43:28;31.70;80.50
6988;DHT22;3534;49.960;8.018;2023-06-19T14:45:55;31.60;80.60
6988;DHT22;3534;49.960;8.018;2023-06-19T14:48:22;31.50;80.90
6988;DHT22;3534;49.960;8.018;2023-06-19T14:50:49;31.50;81.70
6988;DHT22;3534;49.960;8.018;2023-06-19T14:53:16;31.50;81.40
6988;DHT22;3534;49.960;8.018;2023-06-19T14:55:42;31.30;81.70
6988;DHT22;3534;49.960;8.018;2023-06-19T14:58:12;31.30;82.30
6988;DHT22;3534;49.960;8.018;2023-06-19T15:00:39;31.20;83.40
6988;DHT22;3534;49.960;8.018;2023-06-19T15:03:06;31.20;83.80
6988;DHT22;3534;49.960;8.018;2023-06-19T15:05:33;31.10;84.40
6988;DHT22;3534;49.960;8.018;2023-06-19T15:08:00;31.00;84.80
6988;DHT22;3534;49.960;8.018;2023-06-19T15:10:28;31.00;84.80
6988;DHT22;3534;49.960;8.018;2023-06-19T15:12:54;30.90;85.40
6988;DHT22;3534;49.960;8.018;2023-06-19T15:15:22;30.90;85.40
6988;DHT22;3534;49.960;8.018;2023-06-19T15:17:49;30.90;83.70
6988;DHT22;3534;49.960;8.018;2023-06-19T15:20:16;30.80;83.50
6988;DHT22;3534;49.960;8.018;2023-06-19T15:22:43;30.80;83.50
6988;DHT22;3534;49.960;8.018;2023-06-19T15:25:10;30.70;85.10
6988;DHT22;3534;49.960;8.018;2023-06-19T15:27:37;30.70;86.60
6988;DHT22;3534;49.960;8.018;2023-06-19T15:30:04;30.70;87.10
6988;DHT22;3534;49.960;8.018;2023-06-19T15:32:32;30.70;87.70
6988;DHT22;3534;49.960;8.018;2023-06-19T15:34:59;30.70;87.70
6988;DHT22;3534;49.960;8.018;2023-06-19T15:37:26;30.70;88.40
6988;DHT22;3534;49.960;8.018;2023-06-19T15:39:53;30.70;88.90
6988;DHT22;3534;49.960;8.018;2023-06-19T15:42:20;30.70;88.90
6988;DHT22;3534;49.960;8.018;2023-06-19T15:44:47;30.80;88.50
6988;DHT22;3534;49.960;8.018;2023-06-19T15:47:14;30.90;88.60
6988;DHT22;3534;49.960;8.018;2023-06-19T15:49:42;30.80;88.00
6988;DHT22;3534;49.960;8.018;2023-06-19T15:52:09;30.90;87.90
6988;DHT22;3534;49.960;8.018;2023-06-19T15:54:35;30.90;88.20
6988;DHT22;3534;49.960;8.018;2023-06-19T15:57:04;30.90;87.90
6988;DHT22;3534;49.960;8.018;2023-06-19T15:59:31;30.80;88.10
6988;DHT22;3534;49.960;8.018;2023-06-19T16:01:57;30.90;88.60
6988;DHT22;3534;49.960;8.018;2023-06-19T16:04:24;30.90;89.20